createdAt,value
2023-01-27T00:01:11.637Z,8.20
2023-01-27T00:03:39.887Z,7.05
2023-01-27T00:06:12.160Z,7.40
2023-01-27T00:08:40.632Z,6.68
2023-01-27T00:11:26.199Z,6.45
2023-01-27T00:13:56.815Z,5.28
2023-01-27T00:16:25.176Z,5.67
2023-01-27T00:18:53.405Z,6.45
2023-01-27T00:21:38.865Z,6.32
2023-01-27T00:24:25.009Z,6.45
2023-01-27T00:26:53.331Z,7.00
2023-01-27T00:29:22.969Z,6.60
2023-01-27T00:32:08.458Z,7.18
2023-01-27T00:34:36.764Z,7.22
2023-01-27T00:37:06.391Z,7.30
2023-01-27T00:39:34.906Z,7.13
2023-01-27T00:42:03.245Z,6.80
2023-01-27T00:44:33.158Z,7.55
2023-01-27T00:47:01.604Z,6.93
2023-01-27T00:49:29.943Z,7.93
2023-01-27T00:51:58.121Z,7.32
2023-01-27T00:54:26.398Z,7.15
2023-01-27T00:56:54.635Z,7.10
2023-01-27T00:59:23.215Z,6.80
2023-01-27T01:01:53.069Z,6.43
2023-01-27T01:04:21.390Z,6.97
2023-01-27T01:06:50.044Z,7.68
2023-01-27T01:09:19.248Z,7.22
2023-01-27T01:11:49.634Z,7.40
2023-01-27T01:14:18.619Z,6.28
2023-01-27T01:16:47.004Z,6.35
2023-01-27T01:19:16.586Z,6.20
2023-01-27T01:22:06.626Z,5.45
2023-01-27T01:24:35.933Z,5.47
2023-01-27T01:27:04.272Z,5.18
2023-01-27T01:29:32.884Z,5.97
2023-01-27T01:32:01.226Z,5.50
2023-01-27T01:34:34.608Z,5.40
2023-01-27T01:37:03.025Z,5.25
2023-01-27T01:39:31.672Z,5.00
2023-01-27T01:41:59.968Z,4.93
2023-01-27T01:44:31.443Z,4.95
2023-01-27T01:47:01.607Z,4.32
2023-01-27T01:49:36.607Z,4.38
2023-01-27T01:52:10.328Z,4.53
2023-01-27T01:54:42.726Z,5.18
2023-01-27T01:57:14.540Z,4.75
2023-01-27T01:59:47.113Z,5.10
2023-01-27T02:02:21.367Z,5.38
2023-01-27T02:04:56.868Z,4.88
2023-01-27T02:07:32.451Z,4.97
2023-01-27T02:10:02.968Z,4.97
2023-01-27T02:12:31.614Z,5.03
2023-01-27T02:15:00.698Z,4.43
2023-01-27T02:17:30.106Z,5.00
2023-01-27T02:20:08.505Z,5.13
2023-01-27T02:22:42.887Z,5.45
2023-01-27T02:25:19.352Z,4.45
2023-01-27T02:27:49.537Z,5.20
2023-01-27T02:30:18.650Z,4.60
2023-01-27T02:32:46.884Z,5.25
2023-01-27T02:35:32.135Z,4.38
2023-01-27T02:38:01.389Z,4.40
2023-01-27T02:40:31.401Z,4.57
2023-01-27T02:43:01.668Z,4.03
2023-01-27T02:45:30.043Z,4.40
2023-01-27T02:47:58.297Z,4.25
2023-01-27T02:50:26.831Z,4.70
2023-01-27T02:52:55.075Z,4.75
2023-01-27T02:55:23.716Z,5.38
2023-01-27T02:57:53.349Z,4.10
2023-01-27T03:00:40.951Z,4.72
2023-01-27T03:03:09.326Z,4.72
2023-01-27T03:05:37.580Z,4.45
2023-01-27T03:08:06.830Z,4.63
2023-01-27T03:10:35.173Z,4.95
2023-01-27T03:13:03.931Z,4.60
2023-01-27T03:15:49.583Z,5.40
2023-01-27T03:18:19.500Z,4.47
2023-01-27T03:20:50.534Z,4.70
2023-01-27T03:23:20.434Z,4.60
2023-01-27T03:25:53.526Z,4.38
2023-01-27T03:28:21.900Z,4.75
2023-01-27T03:31:20.002Z,5.22
2023-01-27T03:34:01.628Z,4.40
2023-01-27T03:36:54.843Z,4.90
2023-01-27T03:39:41.991Z,5.10
2023-01-27T03:42:27.673Z,4.78
2023-01-27T03:45:14.722Z,4.68
2023-01-27T03:47:43.072Z,4.53
2023-01-27T03:50:13.903Z,4.90
2023-01-27T03:53:02.250Z,4.90
2023-01-27T03:55:31.096Z,5.10
2023-01-27T03:58:06.060Z,4.55
2023-01-27T04:00:34.284Z,5.20
2023-01-27T04:03:19.747Z,4.97
2023-01-27T04:06:06.838Z,4.82
2023-01-27T04:08:35.313Z,4.97
2023-01-27T04:11:21.673Z,4.68
2023-01-27T04:13:50.052Z,4.97
2023-01-27T04:16:19.849Z,4.85
2023-01-27T04:18:49.789Z,4.60
2023-01-27T04:21:20.176Z,5.00
2023-01-27T04:23:48.421Z,4.68
2023-01-27T04:26:16.657Z,5.30
2023-01-27T04:28:45.139Z,5.13
2023-01-27T04:31:13.547Z,5.20
2023-01-27T04:33:41.971Z,5.28
2023-01-27T04:36:10.795Z,5.88
2023-01-27T04:38:40.657Z,5.40
2023-01-27T04:41:08.933Z,5.30
2023-01-27T04:43:37.314Z,5.72
2023-01-27T04:46:05.808Z,5.82
2023-01-27T04:48:34.580Z,5.75
2023-01-27T04:51:02.759Z,5.63
2023-01-27T04:53:31.122Z,5.53
2023-01-27T04:56:05.509Z,5.90
2023-01-27T04:58:34.081Z,5.15
2023-01-27T05:01:02.336Z,4.82
2023-01-27T05:03:30.596Z,5.40
2023-01-27T05:05:58.864Z,5.25
2023-01-27T05:08:27.158Z,4.82
2023-01-27T05:10:55.619Z,4.88
2023-01-27T05:13:25.315Z,5.43
2023-01-27T05:15:53.855Z,5.13
2023-01-27T05:18:22.199Z,5.40
2023-01-27T05:20:51.562Z,4.75
2023-01-27T05:23:38.257Z,4.88
2023-01-27T05:26:09.051Z,6.35
2023-01-27T05:28:40.931Z,4.55
2023-01-27T05:31:12.161Z,5.13
2023-01-27T05:33:41.474Z,5.40
2023-01-27T05:36:13.651Z,5.38
2023-01-27T05:38:42.331Z,5.03
2023-01-27T05:41:12.201Z,4.88
2023-01-27T05:43:43.654Z,4.82
2023-01-27T05:46:13.563Z,5.43
2023-01-27T05:48:43.385Z,5.63
2023-01-27T05:51:14.873Z,5.78
2023-01-27T05:53:43.622Z,5.80
2023-01-27T05:56:13.627Z,6.05
2023-01-27T05:58:43.678Z,6.00
2023-01-27T06:01:14.101Z,6.28
2023-01-27T06:03:43.489Z,6.50
2023-01-27T06:06:16.082Z,6.25
2023-01-27T06:08:45.743Z,6.90
2023-01-27T06:11:14.889Z,6.82
2023-01-27T06:13:44.504Z,5.80
2023-01-27T06:16:17.327Z,5.70
2023-01-27T06:18:46.109Z,5.55
2023-01-27T06:21:16.198Z,5.88
2023-01-27T06:23:44.541Z,6.07
2023-01-27T06:26:15.682Z,5.60
2023-01-27T06:28:45.928Z,5.80
2023-01-27T06:31:16.703Z,5.47
2023-01-27T06:33:45.358Z,4.93
2023-01-27T06:36:14.959Z,5.63
2023-01-27T06:38:43.782Z,5.45
2023-01-27T06:41:12.051Z,5.78
2023-01-27T06:43:40.340Z,5.82
2023-01-27T06:46:10.217Z,5.50
2023-01-27T06:48:39.140Z,5.63
2023-01-27T06:51:07.865Z,6.03
2023-01-27T06:53:37.486Z,5.82
2023-01-27T06:56:06.325Z,6.95
2023-01-27T06:58:34.697Z,6.50
2023-01-27T07:01:04.864Z,6.05
2023-01-27T07:03:37.460Z,6.80
2023-01-27T07:06:06.139Z,6.55
2023-01-27T07:08:34.508Z,6.22
2023-01-27T07:11:05.158Z,6.53
2023-01-27T07:13:33.648Z,6.10
2023-01-27T07:16:01.943Z,6.38
2023-01-27T07:18:30.485Z,6.78
2023-01-27T07:21:00.216Z,6.55
2023-01-27T07:23:28.612Z,6.32
2023-01-27T07:25:57.311Z,6.82
2023-01-27T07:28:26.575Z,6.40
2023-01-27T07:30:54.913Z,6.85
2023-01-27T07:33:23.246Z,7.20
2023-01-27T07:35:51.655Z,7.15
2023-01-27T07:38:21.321Z,6.03
2023-01-27T07:40:49.658Z,5.93
2023-01-27T07:43:17.902Z,6.20
2023-01-27T07:45:49.205Z,5.70
2023-01-27T07:48:17.625Z,6.13
2023-01-27T07:50:45.966Z,5.95
2023-01-27T07:53:14.299Z,5.95
2023-01-27T07:55:44.629Z,5.90
2023-01-27T07:58:12.986Z,6.40
2023-01-27T08:00:41.326Z,6.43
2023-01-27T08:03:22.112Z,6.00
2023-01-27T08:05:51.011Z,6.10
2023-01-27T08:08:20.060Z,6.30
2023-01-27T08:10:51.411Z,6.53
2023-01-27T08:13:19.708Z,6.20
2023-01-27T08:15:47.961Z,6.28
2023-01-27T08:18:16.375Z,6.22
2023-01-27T08:20:46.115Z,5.72
2023-01-27T08:23:14.500Z,5.80
2023-01-27T08:25:42.790Z,5.93
2023-01-27T08:28:12.331Z,5.97
2023-01-27T08:30:40.692Z,5.75
2023-01-27T08:33:09.073Z,6.22
2023-01-27T08:35:39.209Z,5.78
2023-01-27T08:38:07.565Z,6.05
2023-01-27T08:40:36.001Z,5.53
2023-01-27T08:43:05.128Z,6.45
2023-01-27T08:45:35.272Z,6.25
2023-01-27T08:48:05.745Z,6.35
2023-01-27T08:50:35.021Z,6.28
2023-01-27T08:53:04.309Z,6.45
2023-01-27T08:55:34.012Z,6.03
2023-01-27T08:58:02.382Z,6.38
2023-01-27T09:00:30.633Z,6.10
2023-01-27T09:03:00.667Z,7.03
2023-01-27T09:05:29.096Z,7.00
2023-01-27T09:07:57.331Z,6.10
2023-01-27T09:10:25.860Z,6.22
2023-01-27T09:12:54.210Z,6.47
2023-01-27T09:15:22.490Z,6.78
2023-01-27T09:17:50.747Z,6.13
2023-01-27T09:20:20.470Z,6.13
2023-01-27T09:22:48.677Z,6.68
2023-01-27T09:25:18.550Z,6.00
2023-01-27T09:27:46.825Z,6.63
2023-01-27T09:30:17.095Z,6.20
2023-01-27T09:32:45.611Z,6.40
2023-01-27T09:35:14.325Z,6.47
2023-01-27T09:37:49.414Z,6.70
2023-01-27T09:40:29.877Z,6.30
2023-01-27T09:43:25.771Z,5.50
2023-01-27T09:46:27.120Z,6.03
2023-01-27T09:49:10.020Z,6.18
2023-01-27T09:51:51.366Z,5.90
2023-01-27T09:54:41.088Z,6.05
2023-01-27T09:57:17.097Z,5.78
2023-01-27T09:59:57.736Z,6.47
2023-01-27T10:02:45.559Z,6.82
2023-01-27T10:05:31.687Z,6.18
2023-01-27T10:08:15.867Z,7.00
2023-01-27T10:10:58.743Z,6.47
2023-01-27T10:13:37.136Z,7.38
2023-01-27T10:16:23.107Z,7.15
2023-01-27T10:19:13.077Z,6.55
2023-01-27T10:21:50.834Z,7.55
2023-01-27T10:24:32.028Z,7.97
2023-01-27T10:27:08.955Z,6.82
2023-01-27T10:29:45.590Z,8.02
2023-01-27T10:32:23.229Z,7.40
2023-01-27T10:35:03.587Z,7.20
2023-01-27T10:37:38.407Z,7.13
2023-01-27T10:40:13.401Z,6.93
2023-01-27T10:42:51.081Z,6.93
2023-01-27T10:45:29.771Z,6.95
2023-01-27T10:48:15.081Z,8.13
2023-01-27T10:50:47.182Z,6.72
2023-01-27T10:53:20.417Z,7.00
2023-01-27T10:55:59.541Z,6.93
2023-01-27T10:58:40.997Z,6.90
2023-01-27T11:01:21.034Z,7.05
2023-01-27T11:03:55.277Z,7.28
2023-01-27T11:06:26.240Z,6.70
2023-01-27T11:09:00.222Z,7.65
2023-01-27T11:11:49.238Z,7.05
2023-01-27T11:14:27.399Z,6.88
2023-01-27T11:17:01.638Z,7.57
2023-01-27T11:19:41.572Z,7.50
2023-01-27T11:22:18.624Z,7.93
2023-01-27T11:24:48.641Z,7.65
2023-01-27T11:27:28.152Z,7.55
2023-01-27T11:30:03.933Z,7.45
2023-01-27T11:32:42.910Z,6.97
2023-01-27T11:35:13.160Z,6.95
2023-01-27T11:37:43.848Z,7.18
2023-01-27T11:40:19.624Z,6.22
2023-01-27T11:42:48.023Z,7.10
2023-01-27T11:45:19.526Z,6.53
2023-01-27T11:50:21.036Z,6.32
2023-01-27T11:52:52.445Z,6.15
2023-01-27T11:57:55.335Z,6.38
2023-01-27T12:00:31.528Z,6.75
2023-01-27T12:03:06.605Z,7.15
2023-01-27T12:05:37.752Z,6.93
2023-01-27T12:08:06.835Z,7.40
2023-01-27T12:10:38.835Z,6.97
2023-01-27T12:13:11.097Z,6.35
2023-01-27T12:15:49.607Z,7.32
2023-01-27T12:18:18.728Z,7.95
2023-01-27T12:20:48.531Z,7.85
2023-01-27T12:23:22.166Z,7.88
2023-01-27T12:25:55.854Z,7.43
2023-01-27T12:28:33.124Z,7.80
2023-01-27T12:31:09.457Z,7.18
2023-01-27T12:33:41.221Z,6.50
2023-01-27T12:38:47.966Z,6.68
2023-01-27T12:41:24.030Z,7.55
2023-01-27T12:43:53.869Z,7.57
2023-01-27T12:46:26.374Z,6.78
2023-01-27T12:49:02.693Z,6.82
2023-01-27T12:51:41.158Z,7.10
2023-01-27T12:54:28.090Z,7.00
2023-01-27T12:57:01.957Z,7.80
2023-01-27T12:59:30.415Z,6.30
2023-01-27T13:02:03.410Z,8.20
2023-01-27T13:04:32.308Z,8.15
2023-01-27T13:07:08.307Z,7.90
2023-01-27T13:09:40.137Z,8.07
2023-01-27T13:12:17.870Z,9.07
2023-01-27T13:14:46.298Z,8.88
2023-01-27T13:17:31.647Z,8.90
2023-01-27T13:20:04.172Z,9.25
2023-01-27T13:22:41.364Z,8.65
2023-01-27T13:25:19.245Z,8.32
2023-01-27T13:27:50.570Z,8.50
2023-01-27T13:30:28.150Z,8.52
2023-01-27T13:33:03.916Z,8.60
2023-01-27T13:35:35.825Z,8.23
2023-01-27T13:38:11.624Z,8.10
2023-01-27T13:40:45.407Z,9.30
2023-01-27T13:43:21.032Z,7.72
2023-01-27T13:45:56.116Z,8.88
2023-01-27T13:48:30.159Z,8.40
2023-01-27T13:51:05.554Z,7.78
2023-01-27T13:53:34.646Z,8.10
2023-01-27T13:56:21.648Z,8.57
2023-01-27T13:58:59.846Z,8.90
2023-01-27T14:01:39.698Z,8.23
2023-01-27T14:04:30.313Z,7.90
2023-01-27T14:07:08.296Z,8.05
2023-01-27T14:09:53.339Z,7.90
2023-01-27T14:12:36.349Z,8.68
2023-01-27T14:15:16.060Z,9.05
2023-01-27T14:17:49.867Z,8.82
2023-01-27T14:20:37.108Z,8.60
2023-01-27T14:23:23.750Z,8.70
2023-01-27T14:26:04.349Z,8.85
2023-01-27T14:28:38.700Z,9.38
2023-01-27T14:31:14.037Z,8.60
2023-01-27T14:33:55.570Z,9.27
2023-01-27T14:36:31.140Z,8.82
2023-01-27T14:39:07.080Z,10.20
2023-01-27T14:41:41.157Z,10.38
2023-01-27T14:44:20.903Z,9.73
2023-01-27T14:46:59.094Z,10.70
2023-01-27T14:49:42.037Z,10.02
2023-01-27T14:52:23.874Z,10.43
2023-01-27T14:55:15.994Z,9.85
2023-01-27T14:57:54.828Z,10.63
2023-01-27T15:00:34.562Z,10.75
2023-01-27T15:03:23.107Z,10.77
2023-01-27T15:05:59.149Z,10.60
2023-01-27T15:08:35.789Z,10.27
2023-01-27T15:11:21.745Z,10.50
2023-01-27T15:14:00.817Z,9.85
2023-01-27T15:16:56.536Z,9.82
2023-01-27T15:19:46.409Z,10.07
2023-01-27T15:22:33.248Z,10.45
2023-01-27T15:25:20.433Z,9.20
2023-01-27T15:27:53.598Z,9.40
2023-01-27T15:30:24.169Z,10.10
2023-01-27T15:32:52.522Z,9.45
2023-01-27T15:35:38.716Z,9.35
2023-01-27T15:38:20.637Z,9.20
2023-01-27T15:41:04.950Z,9.40
2023-01-27T15:43:34.180Z,10.13
2023-01-27T15:46:25.143Z,10.23
2023-01-27T15:48:53.527Z,10.30
2023-01-27T15:51:22.463Z,9.45
2023-01-27T15:53:54.038Z,9.05
2023-01-27T15:59:14.846Z,8.45
2023-01-27T16:01:43.124Z,8.50
2023-01-27T16:04:17.249Z,8.93
2023-01-27T16:06:49.170Z,8.85
2023-01-27T16:09:25.524Z,9.18
2023-01-27T16:12:04.509Z,8.50
2023-01-27T16:14:44.844Z,9.48
2023-01-27T16:17:24.975Z,9.13
2023-01-27T16:20:15.669Z,7.72
2023-01-27T16:22:45.947Z,8.40
2023-01-27T16:25:24.277Z,8.95
2023-01-27T16:28:00.659Z,8.70
2023-01-27T16:30:31.236Z,8.85
2023-01-27T16:33:06.327Z,8.33
2023-01-27T16:35:41.642Z,8.98
2023-01-27T16:38:20.437Z,8.18
2023-01-27T16:40:53.172Z,9.00
2023-01-27T16:43:26.220Z,8.65
2023-01-27T16:45:56.146Z,8.82
2023-01-27T16:48:30.425Z,8.15
2023-01-27T16:51:14.714Z,9.32
2023-01-27T16:53:46.670Z,9.00
2023-01-27T16:56:24.373Z,9.70
2023-01-27T16:58:55.401Z,9.82
2023-01-27T17:01:27.903Z,9.57
2023-01-27T17:04:07.590Z,9.27
2023-01-27T17:06:39.538Z,10.00
2023-01-27T17:09:22.306Z,10.40
2023-01-27T17:11:50.888Z,10.07
2023-01-27T17:14:30.296Z,9.60
2023-01-27T17:17:02.061Z,10.52
2023-01-27T17:19:33.494Z,9.80
2023-01-27T17:22:03.420Z,9.60
2023-01-27T17:24:33.593Z,10.65
2023-01-27T17:27:05.142Z,10.50
2023-01-27T17:32:05.385Z,9.68
2023-01-27T17:34:34.421Z,10.88
2023-01-27T17:37:16.119Z,10.52
2023-01-27T17:39:45.733Z,10.18
2023-01-27T17:42:19.469Z,11.10
2023-01-27T17:44:50.571Z,11.43
2023-01-27T17:47:20.880Z,11.38
2023-01-27T17:49:51.100Z,11.52
2023-01-27T17:52:22.330Z,11.73
2023-01-27T17:54:51.578Z,12.20
2023-01-27T17:57:23.438Z,11.15
2023-01-27T18:00:00.528Z,10.98
2023-01-27T18:02:31.092Z,12.43
2023-01-27T18:05:02.874Z,11.38
2023-01-27T18:07:31.967Z,12.77
2023-01-27T18:10:00.265Z,13.35
2023-01-27T18:12:34.780Z,13.90
2023-01-27T18:15:38.931Z,14.18
2023-01-27T18:18:19.802Z,12.77
2023-01-27T18:20:53.700Z,13.67
2023-01-27T18:23:31.307Z,12.75
2023-01-27T18:26:05.148Z,11.90
2023-01-27T18:28:36.869Z,11.57
2023-01-27T18:31:13.878Z,12.65
2023-01-27T18:33:43.800Z,11.60
2023-01-27T18:36:22.247Z,10.98
2023-01-27T18:38:51.230Z,11.18
2023-01-27T18:41:25.657Z,10.18
2023-01-27T18:43:54.013Z,10.90
2023-01-27T18:46:23.762Z,10.73
2023-01-27T18:48:52.081Z,10.23
2023-01-27T18:51:20.408Z,9.48
2023-01-27T18:53:48.837Z,10.88
2023-01-27T18:56:17.109Z,10.00
2023-01-27T18:58:45.347Z,9.80
2023-01-27T19:01:24.317Z,9.82
2023-01-27T19:03:55.509Z,10.18
2023-01-27T19:06:23.952Z,15.30
2023-01-27T19:08:52.943Z,45.90
2023-01-27T19:11:21.279Z,93.68
2023-01-27T19:13:51.093Z,90.95
2023-01-27T19:16:19.542Z,121.50
2023-01-27T19:18:50.049Z,104.65
2023-01-27T19:21:18.486Z,69.55
2023-01-27T19:23:49.435Z,53.13
2023-01-27T19:26:18.966Z,39.08
2023-01-27T19:28:49.584Z,27.90
2023-01-27T19:31:18.168Z,41.15
2023-01-27T19:33:47.562Z,48.00
2023-01-27T19:36:24.168Z,53.55
2023-01-27T19:38:56.478Z,64.50
2023-01-27T19:41:24.793Z,50.00
2023-01-27T19:43:53.394Z,42.10
2023-01-27T19:46:23.231Z,39.05
2023-01-27T19:48:51.947Z,26.58
2023-01-27T19:51:21.548Z,35.05
2023-01-27T19:53:49.806Z,50.45
2023-01-27T19:56:19.635Z,62.53
2023-01-27T19:58:51.891Z,71.00
2023-01-27T20:01:20.767Z,87.18
2023-01-27T20:03:49.145Z,65.57
2023-01-27T20:06:18.753Z,50.97
2023-01-27T20:08:48.951Z,38.58
2023-01-27T20:11:33.597Z,32.20
2023-01-27T20:14:02.821Z,26.77
2023-01-27T20:16:31.459Z,22.77
2023-01-27T20:19:00.712Z,18.35
2023-01-27T20:21:31.465Z,17.95
2023-01-27T20:24:03.862Z,17.13
2023-01-27T20:26:32.720Z,15.75
2023-01-27T20:29:01.180Z,14.85
2023-01-27T20:31:29.475Z,14.85
2023-01-27T20:33:57.778Z,14.32
2023-01-27T20:36:26.251Z,13.13
2023-01-27T20:38:54.480Z,12.90
2023-01-27T20:41:25.666Z,12.05
2023-01-27T20:43:56.756Z,13.00
2023-01-27T20:46:25.475Z,12.48
2023-01-27T20:48:53.787Z,12.88
2023-01-27T20:51:22.092Z,13.02
2023-01-27T20:53:50.384Z,12.68
2023-01-27T20:56:20.766Z,11.45
2023-01-27T20:58:50.692Z,11.70
2023-01-27T21:01:20.756Z,11.27
2023-01-27T21:03:50.457Z,11.23
2023-01-27T21:06:20.120Z,11.13
2023-01-27T21:08:49.256Z,10.75
2023-01-27T21:11:21.329Z,11.77
2023-01-27T21:13:53.205Z,10.48
2023-01-27T21:16:21.698Z,11.70
2023-01-27T21:18:50.284Z,10.70
2023-01-27T21:21:27.968Z,11.18
2023-01-27T21:23:56.823Z,10.80
2023-01-27T21:26:25.979Z,11.35
2023-01-27T21:28:55.678Z,10.57
2023-01-27T21:31:29.334Z,12.00
2023-01-27T21:33:58.157Z,11.15
2023-01-27T21:36:26.647Z,10.60
2023-01-27T21:38:55.235Z,11.02
2023-01-27T21:41:43.159Z,11.65
2023-01-27T21:44:36.022Z,10.93
2023-01-27T21:47:05.329Z,10.77
2023-01-27T21:49:56.315Z,11.27
2023-01-27T21:52:25.129Z,10.25
2023-01-27T21:54:53.493Z,10.30
2023-01-27T21:57:21.805Z,11.23
2023-01-27T21:59:51.474Z,11.48
2023-01-27T22:02:19.723Z,11.00
2023-01-27T22:04:48.037Z,11.35
2023-01-27T22:07:18.496Z,10.73
2023-01-27T22:09:47.255Z,10.75
2023-01-27T22:12:17.103Z,11.02
2023-01-27T22:14:45.749Z,10.90
2023-01-27T22:17:15.474Z,10.93
2023-01-27T22:19:44.375Z,11.77
2023-01-27T22:22:14.695Z,11.50
2023-01-27T22:24:42.937Z,11.55
2023-01-27T22:27:11.162Z,11.00
2023-01-27T22:29:39.372Z,11.10
2023-01-27T22:32:07.937Z,11.60
2023-01-27T22:34:37.887Z,10.88
2023-01-27T22:37:06.126Z,10.55
2023-01-27T22:39:34.948Z,10.73
2023-01-27T22:42:03.247Z,11.68
2023-01-27T22:44:31.577Z,11.32
2023-01-27T22:46:59.821Z,10.85
2023-01-27T22:49:28.208Z,11.30
2023-01-27T22:51:57.862Z,12.00
2023-01-27T22:54:26.195Z,12.32
2023-01-27T22:56:54.552Z,12.18
2023-01-27T22:59:22.789Z,11.38
2023-01-27T23:01:51.017Z,11.38
2023-01-27T23:04:19.358Z,12.35
2023-01-27T23:06:47.640Z,12.32
2023-01-27T23:09:17.288Z,11.43
2023-01-27T23:11:45.794Z,11.70
2023-01-27T23:14:14.073Z,11.20
2023-01-27T23:16:42.394Z,11.13
2023-01-27T23:19:10.875Z,11.75
2023-01-27T23:21:39.237Z,12.63
2023-01-27T23:24:07.926Z,12.35
2023-01-27T23:26:37.589Z,13.02
2023-01-27T23:29:19.313Z,11.25
2023-01-27T23:31:52.738Z,11.52
2023-01-27T23:34:21.708Z,11.77
2023-01-27T23:36:50.059Z,11.07
2023-01-27T23:39:18.343Z,12.68
2023-01-27T23:41:48.016Z,11.55
2023-01-27T23:44:16.425Z,11.85
2023-01-27T23:46:44.615Z,11.75
2023-01-27T23:49:13.077Z,11.88
2023-01-27T23:51:41.447Z,11.43
2023-01-27T23:54:09.743Z,11.85
2023-01-27T23:56:38.010Z,11.13
2023-01-27T23:59:07.573Z,12.75
